Latest Weather Observations for Point Fawcett

IDD60901

Issued at 9:01 am CST Tuesday 17 October 2017 (issued every 10 minutes, with the page automatically refreshed every 10 minutes)

About weather observations | Map of Darwin area stations | Latest observations for Darwin area | Other Formats
Station Details ID: 200731 Name: POINT FAWCETT Lat: -11.76 Lon: 130.03 Height: 6.5 m
Data from the previous 72 hours. | See also: Recent months at Point Fawcett
Date/Time
CST
Temp
°C
App
Temp
°C
Dew
Point
°C
Rel
Hum
%
Delta-T
°C
Wind Press
QNH
hPa
Press
MSL
hPa
Rain since
9am
mm
Dir  Spd
km/h
Gust
km/h
Spd
kts
Gust
kts
17/09:00am 31.7 - - - - W 17 20 9 11 1008.8 1008.7 0.0
17/08:30am 30.0 - - - - W 15 19 8 10 1008.7 - 0.0
17/08:00am 30.1 - - - - W 15 19 8 10 1008.4 - 0.0
17/07:30am 29.6 - - - - WNW 17 20 9 11 1007.9 - 0.0
17/07:00am 29.4 - - - - W 17 20 9 11 1007.3 - 0.0
17/06:30am 29.1 - - - - WNW 19 22 10 12 1007.1 - 0.0
17/06:00am 29.1 - - - - WNW 17 22 9 12 1006.8 1006.7 0.0
17/05:30am 29.1 - - - - WNW 17 22 9 12 1006.4 - 0.0
17/05:00am 29.0 - - - - WNW 19 24 10 13 1006.1 - 0.0
17/04:30am 29.1 - - - - WNW 20 28 11 15 1005.8 - 0.0
17/04:00am 29.1 - - - - WNW 22 28 12 15 1005.6 - 0.0
17/03:30am 29.1 - - - - WNW 24 28 13 15 1005.6 - 0.0
17/03:00am 29.1 - - - - NW 22 28 12 15 1005.6 1005.5 0.0
17/02:30am 29.1 - - - - NW 24 30 13 16 1005.7 - 0.0
17/02:00am 29.1 - - - - NW 22 30 12 16 1006.0 - 0.0
17/01:30am 29.2 - - - - NNW 20 28 11 15 1006.2 - 0.0
17/01:00am 29.1 - - - - NNW 20 28 11 15 1006.5 - 0.0
17/12:30am 29.2 - - - - NW 22 26 12 14 1006.7 - 0.0
17/12:00am 29.2 - - - - NW 22 28 12 15 1006.7 1006.6 0.0
 
Date/Time
CST
Temp
°C
App
Temp
°C
Dew
Point
°C
Rel
Hum
%
Delta-T
°C
Wind Press
QNH
hPa
Press
MSL
hPa
Rain since
9am
mm
Dir  Spd
km/h
Gust
km/h
Spd
kts
Gust
kts
16/11:30pm 29.3 - - - - WNW 22 28 12 15 1006.9 - 0.0
16/11:00pm 29.4 - - - - NW 20 26 11 14 1007.2 - 0.0
16/10:30pm 29.5 - - - - WNW 22 26 12 14 1007.1 - 0.0
16/10:00pm 29.5 - - - - WNW 19 22 10 12 1007.3 - 0.0
16/09:30pm 29.5 - - - - WNW 20 24 11 13 1007.1 - 0.0
16/09:00pm 29.6 - - - - NW 17 20 9 11 1007.0 1006.9 0.0
16/08:30pm 29.6 - - - - WNW 20 24 11 13 1006.7 - 0.0
16/08:00pm 29.6 - - - - NW 19 20 10 11 1006.6 - 0.0
16/07:30pm 29.9 - - - - NW 17 20 9 11 1006.3 - 0.0
16/07:00pm 30.0 - - - - NW 15 17 8 9 1005.8 - 0.0
16/06:30pm 30.4 - - - - WNW 15 20 8 11 1005.3 - 0.0
16/06:00pm 31.1 - - - - WNW 17 20 9 11 1005.0 1004.9 0.0
16/05:30pm 32.0 - - - - WNW 15 20 8 11 1004.8 - 0.0
16/05:00pm 32.4 - - - - WNW 15 19 8 10 1004.9 - 0.0
16/04:30pm 32.4 - - - - W 15 19 8 10 1004.9 - 0.0
16/04:00pm 32.5 - - - - W 15 20 8 11 1005.0 - 0.0
16/03:30pm 33.0 - - - - WNW 13 17 7 9 1005.2 - 0.0
16/03:00pm 33.8 - - - - WNW 13 17 7 9 1005.4 1005.3 0.0
16/02:30pm 33.3 - - - - WNW 15 19 8 10 1005.6 - 0.0
16/02:00pm 33.0 - - - - W 13 17 7 9 1005.9 - 0.0
16/01:30pm 33.5 - - - - W 13 17 7 9 1006.3 - 0.0
16/01:00pm 33.4 - - - - WSW 9 15 5 8 1006.7 - 0.0
16/12:30pm 33.6 - - - - W 11 15 6 8 1007.1 - 0.0
16/12:00pm 33.7 - - - - WSW 11 15 6 8 1007.5 1007.4 0.0
16/11:30am 33.2 - - - - WSW 11 15 6 8 1007.9 - 0.0
16/11:00am 33.3 - - - - WSW 11 15 6 8 1008.4 - 0.0
16/10:30am 33.1 - - - - WSW 11 15 6 8 1008.5 - 0.0
16/10:00am 32.2 - - - - WSW 9 15 5 8 1008.7 - 0.0
16/09:30am 31.7 - - - - WSW 7 11 4 6 1009.1 - 0.0
16/09:00am 30.9 - - - - W 9 11 5 6 1009.2 1009.1 0.0
16/08:30am 30.9 - - - - SW 7 11 4 6 1009.3 - 0.0
16/08:00am 30.1 - - - - CALM 0 6 0 3 1009.1 - 0.0
16/07:30am 28.6 - - - - CALM 0 0 0 0 1009.1 - 0.0
16/07:00am 28.3 - - - - S 6 7 3 4 1008.8 - 0.0
16/06:30am 28.6 - - - - SSW 11 17 6 9 1008.4 - 0.0
16/06:00am 28.9 - - - - WSW 15 20 8 11 1007.8 1007.7 0.0
16/05:30am 28.9 - - - - WSW 17 24 9 13 1007.4 - 0.0
16/05:00am 28.9 - - - - W 19 24 10 13 1007.0 - 0.0
16/04:30am 28.9 - - - - W 19 24 10 13 1006.8 - 0.0
16/04:00am 28.9 - - - - W 20 26 11 14 1006.7 - 0.0
16/03:30am 28.9 - - - - WNW 20 24 11 13 1006.9 - 0.0
16/03:00am 28.7 - - - - WNW 19 24 10 13 1006.9 1006.8 0.0
16/02:30am 28.7 - - - - WNW 15 19 8 10 1007.1 - 0.0
16/02:00am 28.5 - - - - WNW 15 19 8 10 1007.4 - 0.0
16/01:30am 26.1 - - - - N 7 13 4 7 1007.5 - 0.0
16/01:00am 25.1 - - - - ESE 7 9 4 5 1008.6 - 0.0
16/12:30am 25.6 - - - - WSW 2 7 1 4 1008.9 - 0.0
16/12:00am 27.9 - - - - WNW 9 11 5 6 1008.7 1008.6 0.0
 
Date/Time
CST
Temp
°C
App
Temp
°C
Dew
Point
°C
Rel
Hum
%
Delta-T
°C
Wind Press
QNH
hPa
Press
MSL
hPa
Rain since
9am
mm
Dir  Spd
km/h
Gust
km/h
Spd
kts
Gust
kts
15/11:30pm 26.9 - - - - NNW 9 17 5 9 1008.3 - 0.0
15/11:00pm 25.7 - - - - ENE 6 7 3 4 1008.7 - 0.0
15/10:30pm 26.2 - - - - E 6 6 3 3 1008.9 - 0.0
15/10:00pm 26.3 - - - - E 6 7 3 4 1008.5 - 0.0
15/09:30pm 26.7 - - - - CALM 0 0 0 0 1008.0 - 0.0
15/09:00pm 27.1 - - - - CALM 0 0 0 0 1007.9 1007.8 0.0
15/08:30pm 27.7 - - - - N 6 13 3 7 1007.4 - 0.0
15/08:00pm 27.4 - - - - N 9 13 5 7 1006.9 - 0.0
15/07:30pm 27.1 - - - - N 11 15 6 8 1006.5 - 0.0
15/07:00pm 27.3 - - - - N 13 20 7 11 1006.4 - 0.0
15/06:30pm 27.8 - - - - N 13 17 7 9 1006.2 - 0.0
15/06:00pm 28.4 - - - - ENE 15 24 8 13 1006.4 1006.3 0.0
15/05:30pm 31.2 - - - - W 9 13 5 7 1005.9 - 0.0
15/05:00pm 32.2 - - - - WSW 11 15 6 8 1005.6 - 0.0
15/04:30pm 32.6 - - - - W 11 15 6 8 1005.5 - 0.0
15/04:00pm 32.9 - - - - WSW 13 20 7 11 1005.4 - 0.0
15/03:30pm 33.0 - - - - WSW 15 22 8 12 1005.6 - 0.0
15/03:00pm 33.3 - - - - WSW 13 17 7 9 1005.9 1005.8 0.0
15/02:30pm 33.3 - - - - WSW 11 17 6 9 1006.1 - 0.0
15/02:00pm 32.7 - - - - W 13 17 7 9 1006.3 - 0.0
15/01:30pm 33.2 - - - - WSW 11 17 6 9 1006.7 - 0.0
15/01:00pm 31.9 - - - - WSW 11 15 6 8 1007.1 - 0.0
15/12:30pm 32.2 - - - - WNW 11 15 6 8 1007.6 - 0.0
15/12:00pm 33.2 - - - - NNW 11 15 6 8 1008.0 1007.9 0.0
15/11:30am 32.3 - - - - NNW 9 11 5 6 1008.2 - 0.0
15/11:00am 31.7 - - - - N 9 11 5 6 1008.3 - 0.0
15/10:30am 31.2 - - - - N 11 15 6 8 1008.3 - 0.0
15/10:00am 30.8 - - - - NNE 11 17 6 9 1008.5 - 0.0
15/09:30am 30.4 - - - - NNE 11 15 6 8 1008.3 - 0.0
15/09:00am 30.0 - - - - NNE 9 15 5 8 1008.3 1008.2 0.0
15/08:30am 29.7 - - - - NNE 9 13 5 7 1008.4 - 0.0
15/08:00am 28.6 - - - - ENE 7 11 4 6 1008.4 - 0.0
15/07:30am 26.6 - - - - ESE 6 7 3 4 1008.3 - 0.0
15/07:00am 25.6 - - - - SE 7 7 4 4 1008.1 - 0.0
15/06:30am 25.4 - - - - ESE 6 9 3 5 1007.6 - 0.0
15/06:00am 25.4 - - - - SE 7 9 4 5 1007.5 1007.4 0.0
15/05:30am 25.1 - - - - SE 7 9 4 5 1007.2 - 0.0
15/05:00am 25.4 - - - - ESE 7 9 4 5 1006.7 - 0.0
15/04:30am 25.4 - - - - E 7 9 4 5 1006.6 - 0.0
15/04:00am 25.5 - - - - ESE 4 9 2 5 1006.6 - 0.0
15/03:30am 25.7 - - - - NNE 4 9 2 5 1006.7 - 0.0
15/03:00am 26.0 - - - - ENE 7 11 4 6 1006.5 1006.4 0.0
15/02:30am 25.4 - - - - E 6 9 3 5 1007.0 - 0.0
15/02:00am 25.5 - - - - ESE 4 6 2 3 1007.1 - 0.0
15/01:30am 26.0 - - - - ENE 7 9 4 5 1007.3 - 0.0
15/01:00am 27.1 - - - - E 4 6 2 3 1007.5 - 0.0
15/12:30am 28.4 - - - - N 9 13 5 7 1007.6 - 0.0
15/12:00am 28.5 - - - - N 11 15 6 8 1008.0 1007.9 0.0
 
Date/Time
CST
Temp
°C
App
Temp
°C
Dew
Point
°C
Rel
Hum
%
Delta-T
°C
Wind Press
QNH
hPa
Press
MSL
hPa
Rain since
9am
mm
Dir  Spd
km/h
Gust
km/h
Spd
kts
Gust
kts
14/11:30pm 28.5 - - - - ENE 9 13 5 7 1008.0 - 0.0
14/11:00pm 29.1 - - - - N 11 15 6 8 1008.4 - 0.0
14/10:30pm 29.1 - - - - N 11 17 6 9 1008.4 - 0.0
14/10:00pm 29.2 - - - - NNE 11 17 6 9 1008.3 - 0.0
14/09:30pm 29.1 - - - - N 15 20 8 11 1008.0 - 0.0
14/09:00pm 29.0 - - - - NNW 15 20 8 11 1007.5 1007.4 0.0
14/08:30pm 28.8 - - - - NNW 15 20 8 11 1007.1 - 0.0
14/08:00pm 28.6 - - - - NNW 11 15 6 8 1006.8 - 0.0
14/07:30pm 28.5 - - - - N 9 13 5 7 1006.4 - 0.0
14/07:00pm 28.8 - - - - N 13 19 7 10 1006.1 - 0.0
14/06:30pm 29.4 - - - - N 11 17 6 9 1005.7 - 0.0
14/06:00pm 29.4 - - - - N 9 15 5 8 1005.7 1005.6 0.0
14/05:30pm 29.1 - - - - NNE 11 15 6 8 1005.7 - 0.0
14/05:00pm 29.2 - - - - NE 7 13 4 7 1005.5 - 0.0
14/04:30pm 29.5 - - - - NE 9 15 5 8 1005.6 - 0.0
14/04:00pm 29.3 - - - - NW 11 24 6 13 1005.7 - 0.0
14/03:30pm 33.7 - - - - SSW 13 20 7 11 1005.4 - 0.0
14/03:00pm 34.1 - - - - SW 13 20 7 11 1005.8 1005.7 0.0
14/02:30pm 33.4 - - - - SW 13 24 7 13 1005.8 - 0.0
14/02:00pm 33.7 - - - - SW 17 26 9 14 1006.3 - 0.0
14/01:30pm 33.5 - - - - SW 15 26 8 14 1006.8 - 0.0
14/01:00pm 32.7 - - - - WSW 13 19 7 10 1007.4 - 0.0
14/12:30pm 32.0 - - - - W 11 17 6 9 1008.0 - 0.0
14/12:00pm 32.2 - - - - W 9 13 5 7 1008.7 1008.6 0.0
14/11:30am 32.4 - - - - W 11 13 6 7 1009.1 - 0.0
14/11:00am 32.3 - - - - WNW 11 13 6 7 1009.4 - 0.0
14/10:30am 33.3 - - - - NW 13 17 7 9 1009.6 - 0.0
14/10:00am 32.9 - - - - NW 15 17 8 9 1009.6 - 0.0
14/09:30am 32.0 - - - - NNW 11 15 6 8 1009.7 - 0.0

Latest Capital City Observations: Canberra | Sydney | Melbourne | Brisbane | Adelaide | Perth | Hobart | Darwin

Other Formats:

Comma delimited format used in spreadsheet applications
http://www.bom.gov.au/fwo/IDD60901/IDD60901.94122.axf

JavaScript Object Notation format (JSON) in row-major order
http://www.bom.gov.au/fwo/IDD60901/IDD60901.94122.json